Terminal Aerodrome Forecast
Issued by NWS Cleveland, OH

Home | Current Version | Previous Version | Graphics & Text | Print | Product List | Glossary On
Versions: 1 2 3 4 5 6 7 8 9 10 11 12 13 14 15 16
000
FTUS41 KCLE 041137
TAFTOL
TAF
KTOL 041137Z 0412/0512 18006KT P6SM BKN050
     FM041500 20010KT 5SM -SHRA OVC050
     FM041700 22010KT 3SM -SHRA OVC025
     FM041900 30008KT 5SM -SHRA BR OVC012
     FM042200 34010KT 5SM BR SCT008 OVC012
     FM050300 34006KT 5SM BR OVC008
     FM051000 01008KT P6SM SCT008=

USA.gov is the U.S. government's official web portal to all federal, state and local government web resources and services.